LGPA

Details ICAO LGPA (PAS)
Name Paros
Region Greece
Timezone Europe/Athens (UTC+2.0)
Plans Departing 10
Arriving 9
Stats Elevation 121 ft / 37 m (AMSL)
Location 37.016602° 25.133297°
Runways 1
Magnetic Variation 4.533° E
Sunrise 2017-12-11 05:24:04 UTC / 2017-12-11 07:24:04 Local
Sunset 2017-12-11 15:04:14 UTC / 2017-12-11 17:04:14 Local
Advertisement - Login to hide

Runways

ID Width Length Bearing (true) Bearing (mag) Surface Threshold Offset Overrun Length
18 82 ft / 25 m 2,330 ft / 710 m 180.00° 175.47° Asphalt 0 ft / 0 m 0 ft / 0 m
36 82 ft / 25 m 2,330 ft / 710 m 0.00° 355.47° Asphalt 0 ft / 0 m 0 ft / 0 m

Map

Weather


0- 5 10 15 20 25 30 35+ Temperature / ° C

Clouds and Precipitation
Forecast for 2017-12-11 12:00 UTC. Updated 32 minutes ago

Ground ~20,000 ft ~40,000 ft Winds

METAR

LGPA 111120Z AUTO 20013KT //// // ////// 17/09 Q1024 RE//

TAF

Not found
Warning: Do not use this data for real-world aviation or navigation. No guarantee of current accuracy is given.